createdAt,value
2019-02-01T00:01:24.393Z,45.60
2019-02-01T00:03:51.861Z,45.60
2019-02-01T00:06:19.333Z,45.50
2019-02-01T00:08:46.896Z,45.40
2019-02-01T00:11:14.441Z,45.20
2019-02-01T00:13:41.915Z,45.40
2019-02-01T00:16:09.386Z,45.20
2019-02-01T00:18:36.850Z,45.50
2019-02-01T00:21:04.323Z,45.70
2019-02-01T00:23:31.790Z,45.60
2019-02-01T00:25:59.248Z,45.60
2019-02-01T00:28:26.716Z,45.60
2019-02-01T00:30:54.186Z,45.70
2019-02-01T00:33:27.299Z,45.70
2019-02-01T00:35:50.832Z,45.70
2019-02-01T00:38:18.311Z,45.70
2019-02-01T00:40:45.771Z,45.70
2019-02-01T00:43:13.239Z,45.70
2019-02-01T00:45:40.700Z,45.70
2019-02-01T00:48:12.167Z,45.70
2019-02-01T00:50:37.358Z,45.60
2019-02-01T00:53:04.840Z,45.60
2019-02-01T00:55:32.305Z,45.70
2019-02-01T00:57:59.775Z,45.70
2019-02-01T01:00:28.313Z,45.70
2019-02-01T01:02:55.909Z,45.70
2019-02-01T01:05:23.419Z,45.60
2019-02-01T01:07:50.888Z,45.50
2019-02-01T01:10:18.422Z,45.50
2019-02-01T01:12:45.918Z,45.50
2019-02-01T01:15:14.044Z,45.50
2019-02-01T01:17:41.513Z,45.40
2019-02-01T01:20:10.358Z,45.50
2019-02-01T01:22:37.820Z,45.30
2019-02-01T01:25:06.038Z,45.20
2019-02-01T01:27:33.498Z,45.40
2019-02-01T01:30:00.971Z,45.60
2019-02-01T01:32:28.522Z,45.50
2019-02-01T01:34:56.003Z,45.50
2019-02-01T01:37:23.473Z,45.40
2019-02-01T01:39:50.945Z,45.40
2019-02-01T01:42:18.415Z,45.40
2019-02-01T01:44:45.926Z,45.40
2019-02-01T01:47:13.404Z,45.40
2019-02-01T01:49:40.878Z,45.40
2019-02-01T01:52:08.346Z,45.50
2019-02-01T01:54:35.840Z,45.40
2019-02-01T01:57:03.335Z,45.50
2019-02-01T01:59:30.827Z,45.50
2019-02-01T02:01:58.290Z,45.50
2019-02-01T02:04:25.766Z,45.40
2019-02-01T02:06:53.238Z,45.40
2019-02-01T02:09:20.710Z,45.30
2019-02-01T02:11:48.175Z,45.30
2019-02-01T02:14:15.644Z,45.20
2019-02-01T02:16:43.119Z,45.10
2019-02-01T02:19:10.582Z,45.10
2019-02-01T02:21:38.073Z,44.90
2019-02-01T02:24:05.537Z,44.90
2019-02-01T02:26:33.009Z,45.20
2019-02-01T02:29:00.490Z,45.40
2019-02-01T02:31:29.025Z,45.40
2019-02-01T02:33:56.498Z,45.40
2019-02-01T02:36:23.982Z,45.40
2019-02-01T02:38:51.453Z,45.40
2019-02-01T02:41:18.930Z,45.40
2019-02-01T02:43:46.405Z,45.50
2019-02-01T02:46:13.871Z,45.50
2019-02-01T02:48:41.325Z,46.10
2019-02-01T02:51:08.794Z,45.50
2019-02-01T02:53:36.262Z,45.40
2019-02-01T02:56:03.737Z,45.50
2019-02-01T02:58:31.510Z,45.40
2019-02-01T03:00:58.970Z,45.40
2019-02-01T03:03:26.456Z,45.50
2019-02-01T03:05:53.931Z,45.50
2019-02-01T03:08:21.402Z,45.50
2019-02-01T03:10:48.873Z,45.60
2019-02-01T03:13:16.334Z,45.40
2019-02-01T03:15:43.794Z,45.40
2019-02-01T03:18:11.257Z,45.30
2019-02-01T03:20:38.723Z,45.40
2019-02-01T03:23:06.189Z,45.30
2019-02-01T03:25:33.683Z,45.30
2019-02-01T03:28:01.221Z,44.90
2019-02-01T03:30:28.691Z,44.80
2019-02-01T03:32:56.161Z,44.90
2019-02-01T03:35:23.636Z,45.20
2019-02-01T03:37:51.100Z,45.40
2019-02-01T03:40:19.228Z,45.30
2019-02-01T03:42:46.686Z,45.10
2019-02-01T03:45:15.025Z,44.90
2019-02-01T03:47:42.492Z,44.90
2019-02-01T03:50:14.241Z,44.90
2019-02-01T03:52:41.716Z,45.00
2019-02-01T03:55:10.253Z,45.00
2019-02-01T03:57:37.734Z,44.90
2019-02-01T04:00:06.822Z,45.60
2019-02-01T04:02:34.289Z,45.10
2019-02-01T04:05:01.753Z,45.40
2019-02-01T04:07:29.234Z,45.40
2019-02-01T04:09:56.702Z,45.40
2019-02-01T04:12:24.161Z,45.20
2019-02-01T04:14:51.635Z,45.20
2019-02-01T04:17:19.099Z,45.20
2019-02-01T04:19:50.643Z,45.30
2019-02-01T04:22:15.817Z,45.40
2019-02-01T04:24:43.281Z,45.40
2019-02-01T04:27:10.751Z,45.30
2019-02-01T04:29:38.210Z,45.40
2019-02-01T04:32:05.682Z,45.30
2019-02-01T04:34:33.135Z,45.50
2019-02-01T04:37:00.606Z,45.50
2019-02-01T04:39:28.077Z,45.40
2019-02-01T04:41:55.541Z,45.30
2019-02-01T04:44:23.035Z,45.30
2019-02-01T04:46:50.490Z,45.50
2019-02-01T04:49:17.963Z,45.50
2019-02-01T04:51:45.439Z,45.40
2019-02-01T04:54:12.907Z,45.40
2019-02-01T04:56:40.365Z,45.40
2019-02-01T04:59:08.312Z,45.30
2019-02-01T05:01:35.842Z,45.30
2019-02-01T05:04:03.600Z,45.40
2019-02-01T05:06:31.062Z,45.40
2019-02-01T05:08:58.521Z,45.40
2019-02-01T05:11:25.986Z,45.50
2019-02-01T05:13:53.455Z,45.50
2019-02-01T05:16:20.958Z,45.40
2019-02-01T05:18:48.441Z,45.30
2019-02-01T05:21:15.884Z,45.30
2019-02-01T05:23:43.358Z,45.40
2019-02-01T05:26:11.103Z,45.70
2019-02-01T05:28:38.572Z,45.50
2019-02-01T05:31:06.052Z,45.50
2019-02-01T05:33:33.517Z,45.50
2019-02-01T05:36:00.972Z,45.50
2019-02-01T05:38:28.444Z,45.50
2019-02-01T05:40:55.909Z,45.60
2019-02-01T05:43:23.379Z,45.70
2019-02-01T05:45:50.838Z,45.60
2019-02-01T05:48:18.310Z,45.50
2019-02-01T05:50:45.799Z,45.60
2019-02-01T05:53:13.258Z,45.50
2019-02-01T05:55:40.753Z,45.60
2019-02-01T05:58:08.217Z,45.50
2019-02-01T06:00:37.338Z,45.40
2019-02-01T06:03:04.813Z,45.40
2019-02-01T06:05:32.305Z,45.40
2019-02-01T06:07:59.767Z,45.40
2019-02-01T06:10:27.243Z,45.70
2019-02-01T06:12:54.712Z,45.80
2019-02-01T06:15:22.172Z,45.80
2019-02-01T06:17:50.108Z,45.70
2019-02-01T06:20:19.474Z,45.50
2019-02-01T06:22:48.394Z,45.50
2019-02-01T06:25:16.289Z,45.60
2019-02-01T06:27:47.169Z,45.50
2019-02-01T06:30:20.435Z,45.40
2019-02-01T06:32:53.211Z,45.30
2019-02-01T06:35:24.053Z,45.30
2019-02-01T06:37:55.576Z,45.40
2019-02-01T06:40:28.180Z,45.60
2019-02-01T06:42:58.717Z,45.70
2019-02-01T06:45:28.315Z,45.80
2019-02-01T06:47:59.662Z,46.00
2019-02-01T06:50:28.966Z,45.90
2019-02-01T06:53:00.701Z,46.00
2019-02-01T06:55:31.351Z,45.90
2019-02-01T06:58:01.884Z,46.00
2019-02-01T07:00:41.522Z,46.00
2019-02-01T07:03:17.304Z,46.00
2019-02-01T07:05:45.240Z,45.80
2019-02-01T07:08:20.887Z,45.90
2019-02-01T07:10:59.503Z,46.00
2019-02-01T07:13:28.906Z,46.70
2019-02-01T07:16:15.816Z,46.40
2019-02-01T07:18:47.891Z,46.90
2019-02-01T07:21:16.995Z,47.00
2019-02-01T07:24:02.451Z,47.50
2019-02-01T07:26:40.485Z,48.10
2019-02-01T07:29:15.780Z,48.50
2019-02-01T07:31:44.880Z,49.80
2019-02-01T07:34:14.903Z,49.40
2019-02-01T07:36:41.993Z,49.50
2019-02-01T07:39:09.462Z,49.40
2019-02-01T07:41:36.947Z,49.40
2019-02-01T07:44:04.448Z,49.60
2019-02-01T07:46:31.904Z,49.70
2019-02-01T07:48:59.396Z,49.70
2019-02-01T07:51:26.850Z,49.70
2019-02-01T07:53:54.402Z,49.70
2019-02-01T07:56:21.941Z,49.90
2019-02-01T07:58:49.405Z,50.00
2019-02-01T08:01:16.872Z,50.10
2019-02-01T08:03:44.335Z,50.10
2019-02-01T08:06:11.824Z,50.40
2019-02-01T08:08:39.298Z,50.30
2019-02-01T08:11:06.769Z,50.50
2019-02-01T08:13:34.252Z,50.00
2019-02-01T08:16:01.720Z,50.50
2019-02-01T08:18:29.229Z,50.70
2019-02-01T08:20:56.731Z,50.70
2019-02-01T08:23:24.218Z,50.20
2019-02-01T08:25:51.691Z,50.70
2019-02-01T08:28:19.171Z,50.80
2019-02-01T08:30:46.661Z,50.90
2019-02-01T08:33:14.127Z,51.10
2019-02-01T08:35:41.622Z,51.30
2019-02-01T08:38:09.089Z,51.30
2019-02-01T08:40:36.593Z,51.40
2019-02-01T08:43:06.657Z,51.40
2019-02-01T08:45:33.249Z,51.60
2019-02-01T08:48:00.996Z,51.60
2019-02-01T08:50:28.525Z,51.70
2019-02-01T08:52:56.085Z,51.70
2019-02-01T08:55:23.576Z,52.30
2019-02-01T08:57:51.086Z,51.70
2019-02-01T09:00:28.633Z,51.70
2019-02-01T09:02:53.725Z,51.60
2019-02-01T09:05:21.154Z,51.80
2019-02-01T09:07:48.617Z,51.70
2019-02-01T09:10:16.181Z,52.00
2019-02-01T09:12:43.645Z,52.10
2019-02-01T09:15:12.002Z,52.30
2019-02-01T09:17:39.853Z,52.20
2019-02-01T09:20:08.969Z,52.20
2019-02-01T09:22:36.445Z,52.10
2019-02-01T09:25:05.087Z,52.20
2019-02-01T09:27:32.558Z,52.20
2019-02-01T09:30:00.025Z,52.10
2019-02-01T09:32:27.489Z,52.10
2019-02-01T09:34:54.965Z,52.10
2019-02-01T09:37:22.460Z,52.20
2019-02-01T09:39:49.910Z,52.80
2019-02-01T09:42:17.381Z,52.20
2019-02-01T09:44:44.860Z,52.10
2019-02-01T09:47:12.319Z,52.20
2019-02-01T09:49:39.788Z,52.30
2019-02-01T09:52:07.257Z,52.50
2019-02-01T09:54:34.717Z,52.50
2019-02-01T09:57:02.238Z,52.40
2019-02-01T09:59:29.703Z,52.40
2019-02-01T10:01:57.183Z,52.50
2019-02-01T10:04:24.686Z,52.50
2019-02-01T10:06:52.206Z,52.50
2019-02-01T10:09:19.673Z,52.50
2019-02-01T10:11:47.147Z,52.50
2019-02-01T10:14:14.614Z,52.50
2019-02-01T10:16:42.090Z,52.60
2019-02-01T10:19:09.551Z,52.60
2019-02-01T10:21:37.017Z,52.60
2019-02-01T10:24:04.501Z,52.60
2019-02-01T10:26:31.952Z,52.70
2019-02-01T10:28:59.605Z,52.70
2019-02-01T10:31:27.069Z,52.60
2019-02-01T10:33:54.539Z,52.60
2019-02-01T10:36:22.047Z,52.60
2019-02-01T10:38:49.518Z,52.50
2019-02-01T10:41:16.978Z,52.50
2019-02-01T10:43:44.451Z,52.60
2019-02-01T10:46:11.922Z,52.50
2019-02-01T10:48:39.398Z,52.40
2019-02-01T10:51:06.864Z,52.50
2019-02-01T10:53:44.825Z,52.50
2019-02-01T10:56:03.910Z,52.40
2019-02-01T10:58:31.413Z,52.60
2019-02-01T11:00:58.916Z,52.60
2019-02-01T11:03:26.391Z,52.70
2019-02-01T11:05:53.853Z,52.80
2019-02-01T11:08:21.320Z,52.60
2019-02-01T11:10:48.820Z,52.60
2019-02-01T11:13:16.298Z,52.60
2019-02-01T11:15:43.767Z,52.60
2019-02-01T11:18:11.317Z,52.60
2019-02-01T11:20:38.782Z,52.60
2019-02-01T11:23:06.289Z,52.60
2019-02-01T11:25:33.823Z,52.60
2019-02-01T11:28:01.318Z,52.60
2019-02-01T11:30:28.781Z,52.50
2019-02-01T11:32:56.252Z,52.60
2019-02-01T11:35:23.711Z,52.60
2019-02-01T11:37:51.165Z,52.60
2019-02-01T11:40:19.610Z,52.70
2019-02-01T11:42:47.098Z,52.80
2019-02-01T11:45:14.567Z,52.90
2019-02-01T11:47:42.038Z,53.00
2019-02-01T11:50:11.151Z,52.90
2019-02-01T11:52:47.654Z,52.90
2019-02-01T11:55:07.866Z,52.80
2019-02-01T11:57:35.332Z,52.90
2019-02-01T12:00:03.369Z,52.80
2019-02-01T12:02:30.832Z,52.80
2019-02-01T12:04:58.309Z,52.90
2019-02-01T12:07:25.881Z,52.80
2019-02-01T12:09:53.354Z,52.60
2019-02-01T12:12:20.822Z,52.60
2019-02-01T12:14:48.375Z,52.60
2019-02-01T12:17:15.830Z,52.60
2019-02-01T12:19:43.301Z,52.60
2019-02-01T12:22:10.775Z,52.60
2019-02-01T12:24:38.250Z,52.50
2019-02-01T12:27:05.792Z,52.50
2019-02-01T12:29:33.268Z,52.60
2019-02-01T12:32:00.765Z,52.60
2019-02-01T12:34:28.326Z,52.60
2019-02-01T12:37:02.965Z,52.50
2019-02-01T12:39:25.039Z,52.50
2019-02-01T12:41:52.532Z,52.40
2019-02-01T12:44:20.032Z,52.40
2019-02-01T12:46:47.507Z,52.40
2019-02-01T12:49:15.048Z,52.50
2019-02-01T12:51:42.589Z,52.50
2019-02-01T12:54:10.049Z,52.40
2019-02-01T12:56:37.812Z,52.40
2019-02-01T12:59:05.291Z,52.40
2019-02-01T13:01:32.746Z,52.40
2019-02-01T13:04:00.217Z,52.30
2019-02-01T13:06:27.765Z,52.30
2019-02-01T13:08:55.300Z,52.30
2019-02-01T13:11:22.761Z,52.30
2019-02-01T13:13:50.246Z,52.30
2019-02-01T13:16:17.726Z,52.30
2019-02-01T13:18:45.225Z,52.30
2019-02-01T13:21:12.974Z,52.30
2019-02-01T13:23:40.442Z,52.30
2019-02-01T13:26:07.909Z,52.30
2019-02-01T13:28:35.390Z,52.50
2019-02-01T13:31:04.883Z,52.40
2019-02-01T13:33:32.246Z,52.30
2019-02-01T13:35:59.744Z,52.20
2019-02-01T13:38:27.224Z,52.20
2019-02-01T13:40:54.685Z,51.90
2019-02-01T13:43:22.217Z,52.30
2019-02-01T13:46:00.516Z,52.20
2019-02-01T13:48:18.887Z,52.20
2019-02-01T13:50:46.351Z,52.20
2019-02-01T13:53:13.812Z,52.20
2019-02-01T13:55:41.274Z,52.20
2019-02-01T13:58:08.753Z,52.20
2019-02-01T14:00:36.227Z,52.20
2019-02-01T14:03:03.726Z,52.20
2019-02-01T14:05:31.172Z,52.20
2019-02-01T14:08:02.017Z,52.20
2019-02-01T14:10:28.762Z,52.30
2019-02-01T14:12:56.305Z,52.20
2019-02-01T14:15:24.642Z,52.20
2019-02-01T14:17:52.144Z,52.20
2019-02-01T14:20:19.665Z,52.20
2019-02-01T14:22:48.774Z,52.20
2019-02-01T14:25:16.704Z,52.10
2019-02-01T14:27:44.197Z,52.10
2019-02-01T14:30:13.299Z,52.10
2019-02-01T14:32:40.783Z,52.00
2019-02-01T14:35:08.243Z,51.90
2019-02-01T14:37:35.706Z,52.10
2019-02-01T14:40:04.146Z,52.20
2019-02-01T14:42:31.614Z,52.80
2019-02-01T14:44:59.081Z,52.20
2019-02-01T14:47:26.573Z,52.20
2019-02-01T14:49:54.055Z,52.20
2019-02-01T14:52:21.529Z,52.20
2019-02-01T14:54:48.999Z,52.10
2019-02-01T14:57:16.461Z,52.10
2019-02-01T14:59:43.932Z,52.10
2019-02-01T15:02:11.465Z,52.00
2019-02-01T15:04:38.934Z,52.10
2019-02-01T15:07:06.422Z,52.00
2019-02-01T15:09:34.230Z,52.10
2019-02-01T15:12:01.682Z,52.10
2019-02-01T15:14:29.157Z,52.10
2019-02-01T15:16:56.642Z,52.20
2019-02-01T15:19:24.180Z,51.90
2019-02-01T15:21:51.734Z,52.00
2019-02-01T15:24:19.195Z,51.90
2019-02-01T15:26:46.668Z,52.00
2019-02-01T15:29:14.133Z,52.00
2019-02-01T15:31:41.598Z,52.00
2019-02-01T15:34:09.077Z,52.20
2019-02-01T15:36:36.544Z,52.20
2019-02-01T15:39:05.188Z,52.20
2019-02-01T15:41:32.638Z,52.20
2019-02-01T15:44:00.101Z,52.20
2019-02-01T15:46:27.573Z,52.10
2019-02-01T15:48:55.029Z,52.00
2019-02-01T15:51:22.560Z,52.00
2019-02-01T15:53:50.022Z,52.00
2019-02-01T15:56:17.491Z,51.90
2019-02-01T15:58:44.954Z,51.90
2019-02-01T16:01:12.431Z,51.80
2019-02-01T16:03:39.885Z,51.70
2019-02-01T16:06:07.425Z,51.90
2019-02-01T16:08:35.154Z,51.90
2019-02-01T16:11:02.622Z,51.90
2019-02-01T16:13:30.089Z,52.00
2019-02-01T16:15:57.553Z,52.00
2019-02-01T16:18:25.106Z,51.90
2019-02-01T16:20:52.570Z,51.90
2019-02-01T16:23:20.032Z,52.40
2019-02-01T16:25:47.501Z,51.90
2019-02-01T16:28:15.038Z,51.80
2019-02-01T16:30:42.500Z,51.90
2019-02-01T16:33:09.965Z,51.70
2019-02-01T16:35:37.441Z,51.60
2019-02-01T16:38:05.550Z,51.70
2019-02-01T16:40:33.013Z,51.60
2019-02-01T16:43:00.486Z,51.60
2019-02-01T16:45:27.955Z,51.50
2019-02-01T16:47:55.589Z,51.60
2019-02-01T16:50:23.925Z,51.50
2019-02-01T16:52:51.390Z,51.50
2019-02-01T16:55:23.426Z,51.30
2019-02-01T16:57:50.887Z,51.40
2019-02-01T17:00:19.957Z,51.40
2019-02-01T17:02:47.455Z,51.30
2019-02-01T17:05:18.777Z,51.30
2019-02-01T17:07:46.257Z,51.20
2019-02-01T17:10:15.483Z,51.20
2019-02-01T17:12:43.017Z,51.10
2019-02-01T17:15:10.566Z,51.10
2019-02-01T17:17:38.043Z,51.10
2019-02-01T17:20:07.228Z,51.00
2019-02-01T17:22:34.782Z,51.00
2019-02-01T17:25:02.245Z,51.10
2019-02-01T17:27:29.707Z,51.10
2019-02-01T17:29:57.171Z,51.00
2019-02-01T17:32:24.650Z,51.00
2019-02-01T17:34:52.113Z,51.00
2019-02-01T17:37:19.584Z,50.90
2019-02-01T17:39:47.058Z,51.00
2019-02-01T17:42:14.525Z,50.90
2019-02-01T17:53:56.670Z,51.00
2019-02-01T17:56:24.158Z,50.80
2019-02-01T17:58:51.625Z,51.00
2019-02-01T18:01:19.121Z,51.30
2019-02-01T18:03:46.618Z,51.20
2019-02-01T18:06:14.158Z,51.00
2019-02-01T18:08:41.728Z,51.00
2019-02-01T18:11:09.477Z,51.10
2019-02-01T18:13:36.962Z,51.00
2019-02-01T18:16:04.510Z,50.80
2019-02-01T18:18:31.977Z,50.70
2019-02-01T18:20:59.445Z,50.60
2019-02-01T18:23:26.906Z,50.50
2019-02-01T18:25:54.371Z,50.50
2019-02-01T18:28:21.833Z,50.60
2019-02-01T18:30:49.298Z,50.60
2019-02-01T18:33:16.768Z,50.60
2019-02-01T18:35:44.229Z,50.60
2019-02-01T18:38:19.836Z,51.30
2019-02-01T18:40:40.942Z,50.70
2019-02-01T18:43:08.462Z,50.70
2019-02-01T18:45:35.932Z,50.70
2019-02-01T18:48:03.402Z,50.70
2019-02-01T18:50:31.840Z,50.70
2019-02-01T18:52:59.322Z,50.60
2019-02-01T18:55:33.678Z,50.60
2019-02-01T18:57:55.977Z,50.60
2019-02-01T19:00:27.712Z,50.60
2019-02-01T19:02:55.234Z,50.50
2019-02-01T19:05:23.753Z,50.40
2019-02-01T19:07:51.221Z,50.40
2019-02-01T19:10:20.328Z,50.50
2019-02-01T19:12:47.859Z,50.50
2019-02-01T19:15:16.429Z,50.50
2019-02-01T19:17:45.526Z,50.30
2019-02-01T19:20:17.585Z,50.20
2019-02-01T19:22:45.048Z,50.20
2019-02-01T19:25:13.786Z,50.10
2019-02-01T19:27:41.245Z,50.10
2019-02-01T19:30:10.422Z,50.20
2019-02-01T19:32:37.885Z,50.20
2019-02-01T19:35:06.925Z,50.60
2019-02-01T19:37:34.402Z,50.60
2019-02-01T19:40:01.871Z,50.60
2019-02-01T19:42:29.343Z,50.90
2019-02-01T19:44:56.813Z,51.10
2019-02-01T19:47:24.295Z,51.10
2019-02-01T19:49:51.774Z,51.10
2019-02-01T19:52:19.296Z,51.10
2019-02-01T19:54:46.770Z,51.40
2019-02-01T19:57:14.237Z,51.50
2019-02-01T19:59:41.699Z,51.50
2019-02-01T20:02:09.443Z,51.50
2019-02-01T20:04:36.923Z,51.60
2019-02-01T20:07:04.374Z,51.60
2019-02-01T20:09:33.180Z,51.80
2019-02-01T20:12:00.894Z,52.10
2019-02-01T20:14:28.384Z,52.20
2019-02-01T20:16:55.852Z,52.20
2019-02-01T20:19:23.314Z,52.00
2019-02-01T20:21:50.776Z,52.00
2019-02-01T20:24:18.240Z,52.00
2019-02-01T20:26:45.721Z,52.20
2019-02-01T20:29:13.246Z,52.00
2019-02-01T20:31:40.809Z,52.00
2019-02-01T20:34:08.284Z,51.90
2019-02-01T20:36:35.752Z,51.90
2019-02-01T20:39:04.839Z,51.70
2019-02-01T20:41:32.309Z,51.60
2019-02-01T20:43:59.764Z,52.00
2019-02-01T20:46:27.238Z,52.20
2019-02-01T20:48:54.701Z,52.30
2019-02-01T20:51:22.178Z,52.10
2019-02-01T20:53:49.645Z,52.30
2019-02-01T20:56:20.036Z,52.30
2019-02-01T20:58:46.321Z,52.30
2019-02-01T21:01:14.062Z,52.20
2019-02-01T21:03:41.527Z,52.20
2019-02-01T21:06:08.997Z,52.20
2019-02-01T21:08:36.488Z,52.10
2019-02-01T21:11:03.956Z,52.10
2019-02-01T21:13:31.425Z,52.10
2019-02-01T21:15:58.897Z,52.00
2019-02-01T21:18:26.357Z,52.10
2019-02-01T21:20:53.900Z,52.20
2019-02-01T21:23:21.362Z,52.20
2019-02-01T21:25:48.853Z,52.20
2019-02-01T21:28:16.316Z,52.20
2019-02-01T21:30:43.786Z,52.20
2019-02-01T21:33:11.527Z,52.00
2019-02-01T21:35:38.983Z,51.90
2019-02-01T21:38:06.468Z,52.00
2019-02-01T21:40:33.927Z,52.00
2019-02-01T21:43:01.401Z,51.90
2019-02-01T21:45:28.869Z,51.80
2019-02-01T21:47:56.337Z,51.80
2019-02-01T21:50:25.428Z,51.80
2019-02-01T21:52:52.907Z,51.80
2019-02-01T21:55:20.372Z,51.70
2019-02-01T21:57:47.848Z,51.80
2019-02-01T22:00:16.939Z,52.50
2019-02-01T22:02:44.405Z,51.80
2019-02-01T22:05:11.902Z,51.70
2019-02-01T22:07:39.391Z,51.60
2019-02-01T22:10:08.469Z,51.60
2019-02-01T22:12:35.934Z,51.60
2019-02-01T22:15:04.478Z,51.60
2019-02-01T22:17:31.964Z,51.70
2019-02-01T22:19:59.440Z,51.70
2019-02-01T22:22:26.928Z,51.70
2019-02-01T22:24:54.457Z,51.70
2019-02-01T22:27:21.982Z,51.80
2019-02-01T22:29:49.528Z,51.90
2019-02-01T22:32:17.062Z,52.00
2019-02-01T22:34:44.517Z,51.90
2019-02-01T22:37:12.006Z,51.70
2019-02-01T22:39:39.481Z,51.80
2019-02-01T22:42:07.022Z,51.60
2019-02-01T22:44:34.489Z,51.70
2019-02-01T22:47:01.956Z,51.70
2019-02-01T22:49:29.419Z,51.80
2019-02-01T22:51:56.889Z,51.80
2019-02-01T22:54:24.357Z,51.70
2019-02-01T22:56:51.828Z,51.60
2019-02-01T22:59:19.346Z,51.70
2019-02-01T23:01:46.896Z,51.80
2019-02-01T23:04:14.537Z,51.90
2019-02-01T23:06:42.009Z,52.00
2019-02-01T23:09:11.110Z,52.10
2019-02-01T23:11:38.580Z,52.20
2019-02-01T23:14:06.051Z,51.90
2019-02-01T23:16:33.525Z,51.90
2019-02-01T23:19:00.997Z,51.80
2019-02-01T23:21:28.458Z,51.80
2019-02-01T23:23:55.933Z,51.80
2019-02-01T23:26:23.409Z,51.70
2019-02-01T23:28:50.878Z,51.60
2019-02-01T23:31:18.340Z,51.50
2019-02-01T23:33:45.798Z,51.60
2019-02-01T23:36:13.294Z,51.60
2019-02-01T23:38:40.810Z,51.80
2019-02-01T23:41:08.646Z,51.90
2019-02-01T23:43:36.414Z,51.80
2019-02-01T23:46:04.461Z,51.80
2019-02-01T23:48:31.928Z,51.80
2019-02-01T23:51:00.824Z,51.70
2019-02-01T23:53:28.246Z,52.20
2019-02-01T23:55:55.708Z,51.50
2019-02-01T23:58:23.173Z,51.50
